createdAt,value
2018-12-03T00:01:23.747Z,32.80
2018-12-03T00:03:59.959Z,32.30
2018-12-03T00:06:32.765Z,33.40
2018-12-03T00:09:06.328Z,31.43
2018-12-03T00:11:39.382Z,34.20
2018-12-03T00:14:13.674Z,31.77
2018-12-03T00:16:46.201Z,33.07
2018-12-03T00:19:19.059Z,33.17
2018-12-03T00:21:51.998Z,32.03
2018-12-03T00:24:24.808Z,33.23
2018-12-03T00:26:57.587Z,30.07
2018-12-03T00:29:30.207Z,29.80
2018-12-03T00:32:03.024Z,30.23
2018-12-03T00:34:35.939Z,27.87
2018-12-03T00:37:08.954Z,28.30
2018-12-03T00:39:43.543Z,27.53
2018-12-03T00:42:17.176Z,27.03
2018-12-03T00:44:52.031Z,28.00
2018-12-03T00:47:24.940Z,25.77
2018-12-03T00:49:59.541Z,24.73
2018-12-03T00:52:31.793Z,25.30
2018-12-03T00:55:04.637Z,27.47
2018-12-03T00:57:38.205Z,30.65
2018-12-03T01:00:13.306Z,30.17
2018-12-03T01:02:46.099Z,31.13
2018-12-03T01:05:20.889Z,30.40
2018-12-03T01:07:54.018Z,31.93
2018-12-03T01:10:28.019Z,31.23
2018-12-03T01:13:00.822Z,32.83
2018-12-03T01:15:33.965Z,30.80
2018-12-03T01:18:06.675Z,29.30
2018-12-03T01:20:39.350Z,30.23
2018-12-03T01:23:11.902Z,29.83
2018-12-03T01:25:50.310Z,30.23
2018-12-03T01:28:23.046Z,30.83
2018-12-03T01:30:55.900Z,30.50
2018-12-03T01:33:28.586Z,27.60
2018-12-03T01:36:05.546Z,26.67
2018-12-03T01:38:41.070Z,26.83
2018-12-03T01:41:14.022Z,30.63
2018-12-03T01:43:47.809Z,31.50
2018-12-03T01:46:20.647Z,29.60
2018-12-03T01:48:54.727Z,28.50
2018-12-03T01:51:27.365Z,29.30
2018-12-03T01:54:00.212Z,29.27
2018-12-03T01:56:33.364Z,30.50
2018-12-03T01:59:07.107Z,33.00
2018-12-03T02:01:39.913Z,31.70
2018-12-03T02:04:12.592Z,32.80
2018-12-03T02:06:45.391Z,29.97
2018-12-03T02:09:18.131Z,30.73
2018-12-03T02:11:51.914Z,31.50
2018-12-03T02:14:27.401Z,30.80
2018-12-03T02:17:01.400Z,32.83
2018-12-03T02:19:33.642Z,32.73
2018-12-03T02:22:07.867Z,34.53
2018-12-03T02:24:41.528Z,32.27
2018-12-03T02:27:15.486Z,36.67
2018-12-03T02:29:48.644Z,32.53
2018-12-03T02:32:21.491Z,31.83
2018-12-03T02:34:54.268Z,34.40
2018-12-03T02:37:27.547Z,28.10
2018-12-03T02:40:00.220Z,29.07
2018-12-03T02:42:35.185Z,28.10
2018-12-03T02:45:08.524Z,28.40
2018-12-03T02:47:42.943Z,27.73
2018-12-03T02:50:16.660Z,27.87
2018-12-03T02:52:50.174Z,30.37
2018-12-03T02:55:22.893Z,29.57
2018-12-03T02:57:55.887Z,30.30
2018-12-03T03:00:28.957Z,35.65
2018-12-03T03:03:03.671Z,32.20
2018-12-03T03:05:36.928Z,32.80
2018-12-03T03:08:10.145Z,30.93
2018-12-03T03:10:43.912Z,36.28
2018-12-03T03:13:16.748Z,31.73
2018-12-03T03:15:49.575Z,33.17
2018-12-03T03:18:22.462Z,32.10
2018-12-03T03:20:55.140Z,34.95
2018-12-03T03:23:28.073Z,31.90
2018-12-03T03:26:00.763Z,31.80
2018-12-03T03:28:33.544Z,31.13
2018-12-03T03:31:06.662Z,31.77
2018-12-03T03:33:39.961Z,34.95
2018-12-03T03:36:12.582Z,32.37
2018-12-03T03:38:45.483Z,31.10
2018-12-03T03:41:18.447Z,30.77
2018-12-03T03:43:51.056Z,34.53
2018-12-03T03:46:23.846Z,33.10
2018-12-03T03:48:57.016Z,32.27
2018-12-03T03:51:29.595Z,33.97
2018-12-03T03:54:03.391Z,32.87
2018-12-03T03:56:37.120Z,34.57
2018-12-03T03:59:09.759Z,32.33
2018-12-03T04:01:42.325Z,32.90
2018-12-03T04:04:15.268Z,30.10
2018-12-03T04:06:47.798Z,31.87
2018-12-03T04:09:20.731Z,30.93
2018-12-03T04:11:53.699Z,32.60
2018-12-03T04:14:26.396Z,34.30
2018-12-03T04:17:00.225Z,39.75
2018-12-03T04:19:33.004Z,37.17
2018-12-03T04:22:06.288Z,39.10
2018-12-03T04:24:39.121Z,37.40
2018-12-03T04:27:12.627Z,37.90
2018-12-03T04:29:45.338Z,37.03
2018-12-03T04:32:21.612Z,38.07
2018-12-03T04:34:54.641Z,36.03
2018-12-03T04:37:27.472Z,36.23
2018-12-03T04:40:00.270Z,35.40
2018-12-03T04:42:32.779Z,34.70
2018-12-03T04:45:05.734Z,34.53
2018-12-03T04:47:39.196Z,35.30
2018-12-03T04:50:15.325Z,35.85
2018-12-03T04:52:47.964Z,32.63
2018-12-03T04:55:22.534Z,32.10
2018-12-03T04:57:55.160Z,34.40
2018-12-03T05:00:27.738Z,33.85
2018-12-03T05:03:00.541Z,31.13
2018-12-03T05:05:33.369Z,31.70
2018-12-03T05:08:06.703Z,30.00
2018-12-03T05:10:39.788Z,30.37
2018-12-03T05:13:13.645Z,34.95
2018-12-03T05:15:47.036Z,32.03
2018-12-03T05:18:20.306Z,32.10
2018-12-03T05:20:54.176Z,33.07
2018-12-03T05:23:28.033Z,34.73
2018-12-03T05:26:02.715Z,33.43
2018-12-03T05:28:35.494Z,37.10
2018-12-03T05:31:08.574Z,38.07
2018-12-03T05:33:43.266Z,36.43
2018-12-03T05:36:15.950Z,38.00
2018-12-03T05:38:49.428Z,36.50
2018-12-03T05:41:22.250Z,37.30
2018-12-03T05:43:54.852Z,34.07
2018-12-03T05:46:27.452Z,36.63
2018-12-03T05:49:00.064Z,31.17
2018-12-03T05:51:32.861Z,29.90
2018-12-03T05:54:05.517Z,29.03
2018-12-03T05:56:38.373Z,30.90
2018-12-03T05:59:11.026Z,28.10
2018-12-03T06:01:43.750Z,26.27
2018-12-03T06:04:16.536Z,26.77
2018-12-03T06:06:50.023Z,26.30
2018-12-03T06:09:22.833Z,25.73
2018-12-03T06:12:00.544Z,25.50
2018-12-03T06:14:33.491Z,25.77
2018-12-03T06:17:06.560Z,28.37
2018-12-03T06:19:39.247Z,31.47
2018-12-03T06:22:12.890Z,27.13
2018-12-03T06:24:45.810Z,25.73
2018-12-03T06:27:19.058Z,28.17
2018-12-03T06:29:51.658Z,31.00
2018-12-03T06:32:24.414Z,28.87
2018-12-03T06:35:01.290Z,29.10
2018-12-03T06:37:33.925Z,30.00
2018-12-03T06:40:07.524Z,30.97
2018-12-03T06:42:41.260Z,30.73
2018-12-03T06:45:17.772Z,32.37
2018-12-03T06:47:53.941Z,31.27
2018-12-03T06:50:27.204Z,33.17
2018-12-03T06:53:00.296Z,36.28
2018-12-03T06:55:33.896Z,33.00
2018-12-03T06:58:06.809Z,32.50
2018-12-03T07:00:39.567Z,32.40
2018-12-03T07:03:12.385Z,33.75
2018-12-03T07:05:45.330Z,29.50
2018-12-03T07:08:19.167Z,30.20
2018-12-03T07:10:52.667Z,30.63
2018-12-03T07:13:26.352Z,31.13
2018-12-03T07:15:59.756Z,31.00
2018-12-03T07:18:32.660Z,31.50
2018-12-03T07:21:06.534Z,31.37
2018-12-03T07:23:39.436Z,34.13
2018-12-03T07:26:12.836Z,37.45
2018-12-03T07:28:45.675Z,34.57
2018-12-03T07:31:18.908Z,33.97
2018-12-03T07:33:51.759Z,33.63
2018-12-03T07:36:24.995Z,36.97
2018-12-03T07:38:57.845Z,36.63
2018-12-03T07:41:31.364Z,35.87
2018-12-03T07:44:04.887Z,33.87
2018-12-03T07:46:37.358Z,36.13
2018-12-03T07:49:10.109Z,42.40
2018-12-03T07:51:43.433Z,37.10
2018-12-03T07:54:16.234Z,36.47
2018-12-03T07:56:49.485Z,36.67
2018-12-03T07:59:23.071Z,38.85
2018-12-03T08:01:56.413Z,37.40
2018-12-03T08:04:29.319Z,36.93
2018-12-03T08:07:02.568Z,37.30
2018-12-03T08:09:35.440Z,35.07
2018-12-03T08:12:08.147Z,40.07
2018-12-03T08:14:40.811Z,35.90
2018-12-03T08:17:13.726Z,35.60
2018-12-03T08:19:46.580Z,34.17
2018-12-03T08:22:19.752Z,41.05
2018-12-03T08:24:53.037Z,35.37
2018-12-03T08:27:26.021Z,32.70
2018-12-03T08:29:58.807Z,33.57
2018-12-03T08:32:31.757Z,32.50
2018-12-03T08:35:04.583Z,34.63
2018-12-03T08:37:37.546Z,33.47
2018-12-03T08:40:16.021Z,34.27
2018-12-03T08:42:54.862Z,34.97
2018-12-03T08:45:28.442Z,40.52
2018-12-03T08:48:01.261Z,36.30
2018-12-03T08:50:34.190Z,34.13
2018-12-03T08:53:08.068Z,33.47
2018-12-03T08:55:41.026Z,33.73
2018-12-03T08:58:18.505Z,32.63
2018-12-03T09:00:51.606Z,33.67
2018-12-03T09:03:26.840Z,34.63
2018-12-03T09:05:59.966Z,36.67
2018-12-03T09:08:32.749Z,35.87
2018-12-03T09:11:06.626Z,36.23
2018-12-03T09:13:39.935Z,35.50
2018-12-03T09:16:12.945Z,38.27
2018-12-03T09:18:45.739Z,35.27
2018-12-03T09:21:21.256Z,36.23
2018-12-03T09:23:57.256Z,35.80
2018-12-03T09:26:30.322Z,35.97
2018-12-03T09:29:03.699Z,36.33
2018-12-03T09:31:36.625Z,34.43
2018-12-03T09:34:09.603Z,35.77
2018-12-03T09:36:42.781Z,34.63
2018-12-03T09:39:17.420Z,35.07
2018-12-03T09:41:51.367Z,42.65
2018-12-03T09:44:24.571Z,36.07
2018-12-03T09:46:58.322Z,34.90
2018-12-03T09:49:31.209Z,36.53
2018-12-03T09:52:04.292Z,36.57
2018-12-03T09:54:37.191Z,36.90
2018-12-03T09:57:10.142Z,34.80
2018-12-03T09:59:42.957Z,34.67
2018-12-03T10:02:16.430Z,32.97
2018-12-03T10:04:49.792Z,33.20
2018-12-03T10:07:23.291Z,34.33
2018-12-03T10:09:56.843Z,33.87
2018-12-03T10:12:30.440Z,28.70
2018-12-03T10:15:03.177Z,29.98
2018-12-03T10:17:36.864Z,26.20
2018-12-03T10:20:13.836Z,23.40
2018-12-03T10:22:56.843Z,19.47
2018-12-03T10:25:29.014Z,24.77
2018-12-03T10:28:07.189Z,21.97
2018-12-03T10:30:39.822Z,21.00
2018-12-03T10:33:13.117Z,21.90
2018-12-03T10:35:45.796Z,17.80
2018-12-03T10:38:23.866Z,14.30
2018-12-03T10:41:00.400Z,14.67
2018-12-03T10:43:33.536Z,13.40
2018-12-03T10:46:06.878Z,13.23
2018-12-03T10:48:40.585Z,13.70
2018-12-03T10:51:18.262Z,13.27
2018-12-03T10:53:51.716Z,13.83
2018-12-03T10:56:24.414Z,14.77
2018-12-03T10:58:57.210Z,14.00
2018-12-03T11:01:33.524Z,15.28
2018-12-03T11:04:10.809Z,14.80
2018-12-03T11:06:43.559Z,15.03
2018-12-03T11:09:17.262Z,15.07
2018-12-03T11:11:52.999Z,15.98
2018-12-03T11:14:25.928Z,14.93
2018-12-03T11:16:59.500Z,14.40
2018-12-03T11:19:32.940Z,13.50
2018-12-03T11:22:06.903Z,12.98
2018-12-03T11:24:39.980Z,13.53
2018-12-03T11:27:12.611Z,13.40
2018-12-03T11:29:45.876Z,16.33
2018-12-03T11:32:24.012Z,18.00
2018-12-03T11:34:56.853Z,16.37
2018-12-03T11:37:29.646Z,18.87
2018-12-03T11:40:13.320Z,19.30
2018-12-03T11:42:46.819Z,21.93
2018-12-03T11:45:19.537Z,22.73
2018-12-03T11:47:56.496Z,21.70
2018-12-03T11:50:30.989Z,26.53
2018-12-03T11:53:03.919Z,24.27
2018-12-03T11:56:02.209Z,23.47
2018-12-03T11:58:35.047Z,26.42
2018-12-03T12:01:08.792Z,28.87
2018-12-03T12:03:44.030Z,27.37
2018-12-03T12:06:16.913Z,26.87
2018-12-03T12:08:49.991Z,28.95
2018-12-03T12:11:22.860Z,26.30
2018-12-03T12:13:56.758Z,26.97
2018-12-03T12:16:29.616Z,27.87
2018-12-03T12:19:03.719Z,29.70
2018-12-03T12:21:40.779Z,37.43
2018-12-03T12:24:13.767Z,38.77
2018-12-03T12:26:46.430Z,35.60
2018-12-03T12:29:22.482Z,29.93
2018-12-03T12:32:07.068Z,33.70
2018-12-03T12:34:39.827Z,29.73
2018-12-03T12:37:12.672Z,31.90
2018-12-03T12:39:44.937Z,36.83
2018-12-03T12:42:18.897Z,37.17
2018-12-03T12:44:51.712Z,37.97
2018-12-03T12:47:32.776Z,39.00
2018-12-03T12:53:01.205Z,41.60
2018-12-03T12:55:34.863Z,42.53
2018-12-03T12:58:07.743Z,39.93
2018-12-03T13:01:36.467Z,38.27
2018-12-03T13:04:18.870Z,37.50
2018-12-03T13:06:58.653Z,37.00
2018-12-03T13:09:47.659Z,33.57
2018-12-03T13:12:31.503Z,28.67
2018-12-03T13:15:26.896Z,28.73
2018-12-03T13:21:11.228Z,26.47
2018-12-03T13:23:45.221Z,26.90
2018-12-03T13:26:20.001Z,24.33
2018-12-03T13:28:54.313Z,24.20
2018-12-03T13:31:28.242Z,24.90
2018-12-03T13:34:01.197Z,24.73
2018-12-03T13:36:35.495Z,24.23
2018-12-03T13:39:13.635Z,25.50
2018-12-03T13:41:47.435Z,25.30
2018-12-03T13:44:22.389Z,25.80
2018-12-03T13:46:56.834Z,38.10
2018-12-03T13:49:29.906Z,28.13
2018-12-03T13:52:02.638Z,35.37
2018-12-03T13:54:35.448Z,27.87
2018-12-03T13:57:08.128Z,31.53
2018-12-03T13:59:42.553Z,35.07
2018-12-03T14:02:18.487Z,37.75
2018-12-03T14:04:51.765Z,35.33
2018-12-03T14:07:36.025Z,40.97
2018-12-03T14:10:17.978Z,23.70
2018-12-03T14:13:04.749Z,29.37
2018-12-03T14:15:57.749Z,22.90
2018-12-03T14:18:39.909Z,21.57
2018-12-03T14:21:34.130Z,21.83
2018-12-03T14:24:08.515Z,22.90
2018-12-03T14:26:41.464Z,21.27
2018-12-03T14:29:16.220Z,53.83
2018-12-03T14:31:49.476Z,20.00
2018-12-03T14:34:27.061Z,17.83
2018-12-03T14:36:58.735Z,26.70
2018-12-03T14:39:38.738Z,47.77
2018-12-03T14:42:13.399Z,22.40
2018-12-03T14:44:46.577Z,25.37
2018-12-03T14:47:19.884Z,20.17
2018-12-03T14:49:52.825Z,21.43
2018-12-03T14:52:25.599Z,18.00
2018-12-03T14:54:59.655Z,16.63
2018-12-03T14:57:32.527Z,17.20
2018-12-03T15:00:05.652Z,18.32
2018-12-03T15:02:40.576Z,18.63
2018-12-03T15:05:13.234Z,21.80
2018-12-03T15:08:07.634Z,21.87
2018-12-03T15:10:42.239Z,18.37
2018-12-03T15:13:19.664Z,19.23
2018-12-03T15:15:52.096Z,18.30
2018-12-03T15:18:26.369Z,20.87
2018-12-03T15:21:05.418Z,18.13
2018-12-03T15:23:37.758Z,18.85
2018-12-03T15:26:10.921Z,18.37
2018-12-03T15:28:44.986Z,16.50
2018-12-03T15:31:19.696Z,17.27
2018-12-03T15:33:52.528Z,11.50
2018-12-03T15:36:25.142Z,12.67
2018-12-03T15:38:58.973Z,12.40
2018-12-03T15:41:35.707Z,12.80
2018-12-03T15:44:09.781Z,14.10
2018-12-03T15:46:44.871Z,14.45
2018-12-03T15:49:20.569Z,14.63
2018-12-03T15:51:58.148Z,10.27
2018-12-03T15:54:31.687Z,13.13
2018-12-03T15:57:06.139Z,17.47
2018-12-03T15:59:39.687Z,19.10
2018-12-03T16:02:13.540Z,29.23
2018-12-03T16:04:49.126Z,27.43
2018-12-03T16:07:33.361Z,13.57
2018-12-03T16:10:05.776Z,31.40
2018-12-03T16:12:43.480Z,27.90
2018-12-03T16:15:16.926Z,18.97
2018-12-03T16:17:49.234Z,14.30
2018-12-03T16:20:22.937Z,13.73
2018-12-03T16:22:59.120Z,11.00
2018-12-03T16:25:32.254Z,11.60
2018-12-03T16:28:05.719Z,11.10
2018-12-03T16:30:39.694Z,10.77
2018-12-03T16:33:12.403Z,11.53
2018-12-03T16:35:46.529Z,10.70
2018-12-03T16:38:19.054Z,10.77
2018-12-03T16:40:52.126Z,10.53
2018-12-03T16:43:24.567Z,10.00
2018-12-03T16:45:57.575Z,9.30
2018-12-03T16:48:29.965Z,9.07
2018-12-03T16:51:04.081Z,9.73
2018-12-03T16:53:36.998Z,9.43
2018-12-03T16:56:11.436Z,9.10
2018-12-03T16:58:44.388Z,9.53
2018-12-03T17:01:22.092Z,9.80
2018-12-03T17:03:54.843Z,9.60
2018-12-03T17:06:27.891Z,9.20
2018-12-03T17:09:02.425Z,12.37
2018-12-03T17:11:36.410Z,10.30
2018-12-03T17:14:09.276Z,10.50
2018-12-03T17:16:42.279Z,9.97
2018-12-03T17:19:15.248Z,10.83
2018-12-03T17:21:55.940Z,10.57
2018-12-03T17:24:33.490Z,10.37
2018-12-03T17:27:06.364Z,9.97
2018-12-03T17:29:40.211Z,9.90
2018-12-03T17:32:13.170Z,9.87
2018-12-03T17:34:48.971Z,10.30
2018-12-03T17:37:19.765Z,10.97
2018-12-03T17:39:52.954Z,9.53
2018-12-03T17:42:27.100Z,9.53
2018-12-03T17:44:59.938Z,8.63
2018-12-03T17:47:32.832Z,9.23
2018-12-03T17:50:05.481Z,8.90
2018-12-03T17:52:37.828Z,8.93
2018-12-03T17:55:11.107Z,8.77
2018-12-03T17:57:44.186Z,8.47
2018-12-03T18:00:18.751Z,9.23
2018-12-03T18:02:57.822Z,8.30
2018-12-03T18:05:30.955Z,9.88
2018-12-03T18:08:04.017Z,8.60
2018-12-03T18:10:37.663Z,8.37
2018-12-03T18:13:15.692Z,8.30
2018-12-03T18:15:51.625Z,7.63
2018-12-03T18:18:24.468Z,9.57
2018-12-03T18:20:58.120Z,7.57
2018-12-03T18:23:32.257Z,7.37
2018-12-03T18:26:05.247Z,7.77
2018-12-03T18:28:38.900Z,8.23
2018-12-03T18:31:16.187Z,7.80
2018-12-03T18:33:53.287Z,7.40
2018-12-03T18:36:28.512Z,8.20
2018-12-03T18:39:51.050Z,20.17
2018-12-03T18:42:32.553Z,10.40
2018-12-03T18:45:05.525Z,8.10
2018-12-03T18:47:40.455Z,7.27
2018-12-03T18:50:21.844Z,7.10
2018-12-03T18:52:54.456Z,7.33
2018-12-03T18:55:27.661Z,8.07
2018-12-03T18:58:04.996Z,7.37
2018-12-03T19:00:39.151Z,7.87
2018-12-03T19:03:12.132Z,7.43
2018-12-03T19:05:48.015Z,11.80
2018-12-03T19:11:14.446Z,7.20
2018-12-03T19:13:47.304Z,8.10
2018-12-03T19:29:27.326Z,7.20
2018-12-03T19:32:01.034Z,9.58
2018-12-03T19:34:34.231Z,8.63
2018-12-03T19:37:07.374Z,8.23
2018-12-03T19:42:36.646Z,8.68
2018-12-03T19:45:11.809Z,8.90
2018-12-03T19:48:06.829Z,8.73
2018-12-03T19:50:42.083Z,8.50
2018-12-03T19:53:16.572Z,8.33
2018-12-03T19:55:53.074Z,8.33
2018-12-03T19:58:33.282Z,8.95
2018-12-03T20:01:08.461Z,9.10
2018-12-03T20:03:43.552Z,8.00
2018-12-03T20:06:18.093Z,9.30
2018-12-03T20:08:51.102Z,7.73
2018-12-03T20:11:27.452Z,7.00
2018-12-03T20:14:02.105Z,9.08
2018-12-03T20:16:36.261Z,6.92
2018-12-03T20:19:11.245Z,6.80
2018-12-03T20:21:50.521Z,7.50
2018-12-03T20:24:26.609Z,7.58
2018-12-03T20:27:07.588Z,7.87
2018-12-03T20:29:50.495Z,8.00
2018-12-03T20:32:49.319Z,9.10
2018-12-03T20:35:28.217Z,8.43
2018-12-03T20:39:11.310Z,7.75
2018-12-03T20:41:48.254Z,8.00
2018-12-03T20:44:32.219Z,9.00
2018-12-03T20:47:16.777Z,9.00
2018-12-03T20:50:15.436Z,10.17
2018-12-03T20:52:48.767Z,10.10
2018-12-03T20:55:27.139Z,9.93
2018-12-03T20:58:00.528Z,9.10
2018-12-03T21:00:40.125Z,10.67
2018-12-03T21:03:13.166Z,10.35
2018-12-03T21:05:45.648Z,11.60
2018-12-03T21:08:19.540Z,15.77
2018-12-03T21:10:52.999Z,18.63
2018-12-03T21:13:26.013Z,11.15
2018-12-03T21:16:00.229Z,12.00
2018-12-03T21:18:33.123Z,11.40
2018-12-03T21:21:08.223Z,11.87
2018-12-03T21:26:41.264Z,11.83
2018-12-03T21:29:19.240Z,10.53
2018-12-03T21:31:52.540Z,12.00
2018-12-03T21:34:25.375Z,11.47
2018-12-03T21:36:58.546Z,11.50
2018-12-03T21:39:31.320Z,12.50
2018-12-03T21:44:57.122Z,13.68
2018-12-03T21:47:33.516Z,12.67
2018-12-03T21:50:13.125Z,13.80
2018-12-03T21:52:49.391Z,13.10
2018-12-03T21:56:13.300Z,13.57
2018-12-03T21:58:47.071Z,14.20
2018-12-03T22:01:20.174Z,13.48
2018-12-03T22:03:55.479Z,14.97
2018-12-03T22:06:28.375Z,14.23
2018-12-03T22:09:02.094Z,14.60
2018-12-03T22:11:36.181Z,16.62
2018-12-03T22:14:08.447Z,17.82
2018-12-03T22:16:41.237Z,15.80
2018-12-03T22:19:16.738Z,19.10
2018-12-03T22:21:54.069Z,19.53
2018-12-03T22:24:31.094Z,18.13
2018-12-03T22:27:04.001Z,19.27
2018-12-03T22:29:39.003Z,19.30
2018-12-03T22:32:11.759Z,17.80
2018-12-03T22:34:47.243Z,18.37
2018-12-03T22:37:20.323Z,19.87
2018-12-03T22:39:55.669Z,18.70
2018-12-03T22:42:29.259Z,20.40
2018-12-03T22:45:02.089Z,21.13
2018-12-03T22:47:34.771Z,24.30
2018-12-03T22:50:12.720Z,21.17
2018-12-03T22:52:45.824Z,20.03
2018-12-03T22:55:18.268Z,22.17
2018-12-03T22:57:56.332Z,23.13
2018-12-03T23:00:42.213Z,23.37
2018-12-03T23:03:36.102Z,25.87
2018-12-03T23:06:26.713Z,26.03
2018-12-03T23:09:07.909Z,26.67
2018-12-03T23:11:40.466Z,28.67
2018-12-03T23:14:14.042Z,30.00
2018-12-03T23:16:51.886Z,30.80
2018-12-03T23:19:25.275Z,30.90
2018-12-03T23:21:58.035Z,34.15
2018-12-03T23:24:32.716Z,32.57
2018-12-03T23:27:05.448Z,32.77
2018-12-03T23:29:39.344Z,33.53
2018-12-03T23:32:12.226Z,33.87
2018-12-03T23:34:45.122Z,37.23
2018-12-03T23:37:18.132Z,35.87
2018-12-03T23:39:51.157Z,39.30
2018-12-03T23:42:24.051Z,36.80
2018-12-03T23:44:58.011Z,36.00
2018-12-03T23:47:36.244Z,43.30
2018-12-03T23:50:09.431Z,39.07
